Time;durP1;ratioP1;P1;durP2;ratioP2;P2;SDS_P1;SDS_P2;PMS_P1;PMS_P2;Temp;Humidity;BMP_temperature;BMP_pressure;BME280_temperature;BME280_humidity;BME280_pressure;Samples;Min_cycle;Max_cycle;Signal;HPM_P1;HPM_P2
2023/01/03 00:07:05;;;;;;;7.05;4.68;;;;;;;21.96;41.62;101965.63;21086306;28;20452;-62
2023/01/03 00:17:10;;;;;;;6.65;3.88;;;;;;;21.94;41.74;101967.81;21082064;28;20052;-62
2023/01/03 00:27:13;;;;;;;6.65;4.30;;;;;;;21.78;41.78;101958.47;21081165;28;20039;-61
2023/01/03 00:37:14;;;;;;;6.38;4.20;;;;;;;21.98;41.60;101986.53;21080782;28;20048;-62
2023/01/03 00:47:16;;;;;;;7.53;4.47;;;;;;;22.03;41.20;101960.66;21073287;28;20047;-60
2023/01/03 00:57:20;;;;;;;8.23;5.53;;;;;;;22.07;42.08;101982.16;21076219;28;20487;-60
2023/01/03 01:07:21;;;;;;;10.23;5.18;;;;;;;22.08;42.20;101963.50;21077989;28;20040;-60
2023/01/03 01:17:22;;;;;;;7.13;4.82;;;;;;;22.09;42.37;101945.69;21068873;28;20471;-60
2023/01/03 01:27:24;;;;;;;9.52;5.18;;;;;;;22.05;42.41;101928.66;21072249;28;20049;-61
2023/01/03 01:37:27;;;;;;;7.43;5.00;;;;;;;22.00;42.36;101933.34;21068571;28;20044;-61
2023/01/03 01:47:47;;;;;;;10.00;5.15;;;;;;;22.10;42.68;101950.16;21028608;28;20039;-60
2023/01/03 01:57:49;;;;;;;8.45;5.13;;;;;;;22.09;42.64;101928.97;21066125;28;20051;-60
2023/01/03 02:07:52;;;;;;;5.90;4.43;;;;;;;22.12;42.48;101942.38;21070132;28;20048;-60
2023/01/03 02:18:11;;;;;;;8.07;4.95;;;;;;;22.15;42.33;101941.88;21070391;28;20036;-60
2023/01/03 02:28:37;;;;;;;7.90;4.80;;;;;;;22.12;42.49;101931.22;21071363;28;20040;-59
2023/01/03 02:38:56;;;;;;;8.48;4.90;;;;;;;22.15;42.39;101932.66;21057373;28;20044;-62
2023/01/03 02:49:16;;;;;;;9.27;5.05;;;;;;;22.13;42.35;101919.00;21074909;28;20425;-62
2023/01/03 02:59:23;;;;;;;8.18;5.00;;;;;;;22.15;42.49;101919.56;21092462;28;20383;-60
2023/01/03 03:09:24;;;;;;;25.63;10.77;;;;;;;22.16;42.44;101921.25;21075428;28;20061;-63
2023/01/03 03:29:55;;;;;;;132.00;47.92;;;;;;;22.17;42.54;101917.34;21076735;28;20048;-63
2023/01/03 03:50:34;;;;;;;137.35;49.38;;;;;;;22.12;42.66;101913.69;21078683;28;20032;-63
2023/01/03 04:00:40;;;;;;;162.05;55.40;;;;;;;22.07;42.53;101878.19;21089625;28;20402;-62
2023/01/03 04:10:42;;;;;;;136.07;47.20;;;;;;;22.16;42.24;101882.22;21082184;28;20431;-63
2023/01/03 04:20:43;;;;;;;138.75;50.97;;;;;;;22.17;42.31;101866.31;21070578;28;20040;-62
2023/01/03 04:30:46;;;;;;;145.15;50.55;;;;;;;22.14;42.24;101866.88;21078128;28;20069;-62
2023/01/03 04:40:47;;;;;;;135.77;50.08;;;;;;;22.17;42.15;101867.16;21061444;28;20036;-62
2023/01/03 04:50:57;;;;;;;127.20;50.00;;;;;;;22.17;42.06;101849.59;21081519;28;20124;-63
2023/01/03 05:01:00;;;;;;;155.52;56.25;;;;;;;22.17;42.56;101850.44;21064850;28;20043;-62
2023/01/03 05:11:02;;;;;;;164.50;63.05;;;;;;;22.13;44.13;101849.31;21080243;28;20048;-62
2023/01/03 05:31:37;;;;;;;139.77;54.85;;;;;;;22.13;43.34;101854.03;21039543;28;20040;-61
2023/01/03 05:51:58;;;;;;;126.38;50.25;;;;;;;22.13;42.80;101815.88;21065047;28;20032;-63
2023/01/03 06:02:02;;;;;;;114.63;48.20;;;;;;;22.14;42.97;101788.81;21067361;28;20045;-63
2023/01/03 06:12:04;;;;;;;106.07;46.50;;;;;;;22.15;42.76;101796.06;21073783;28;20555;-62
2023/01/03 06:22:05;;;;;;;112.43;45.17;;;;;;;22.09;42.81;101781.22;21065942;28;20052;-63
2023/01/03 06:32:07;;;;;;;111.55;44.60;;;;;;;22.14;42.66;101774.88;21072385;28;20556;-63
2023/01/03 07:02:48;;;;;;;101.20;41.63;;;;;;;22.11;42.58;101783.75;21074075;28;20044;-62
2023/01/03 07:23:11;;;;;;;82.80;38.22;;;;;;;22.11;42.70;101811.63;21067535;28;20476;-62
2023/01/03 07:33:14;;;;;;;81.40;35.58;;;;;;;22.06;42.61;101827.19;21070629;28;20052;-62
2023/01/03 07:43:37;;;;;;;83.65;35.88;;;;;;;22.05;42.21;101802.38;21083070;28;20043;-62
2023/01/03 07:53:39;;;;;;;78.18;35.70;;;;;;;22.08;42.76;101768.38;21085536;28;20090;-62
2023/01/03 08:03:41;;;;;;;71.10;30.45;;;;;;;22.05;42.36;101753.06;21083938;28;20093;-62
2023/01/03 08:13:47;;;;;;;65.25;31.02;;;;;;;21.94;42.37;101745.72;21081011;28;20040;-62
2023/01/03 08:23:51;;;;;;;59.88;28.42;;;;;;;21.92;42.49;101724.81;21082201;28;20032;-62
2023/01/03 08:34:03;;;;;;;52.63;27.33;;;;;;;21.95;42.46;101702.00;21081518;28;20039;-62
2023/01/03 08:44:08;;;;;;;60.67;28.90;;;;;;;22.01;42.41;101706.47;21053629;28;20483;-62
2023/01/03 08:54:12;;;;;;;54.22;26.67;;;;;;;22.00;42.28;101713.16;21078491;28;20398;-62
2023/01/03 09:04:15;;;;;;;48.75;24.73;;;;;;;22.01;42.35;101720.41;21078549;28;20036;-62
2023/01/03 09:14:17;;;;;;;52.97;25.00;;;;;;;21.99;42.30;101726.28;21077463;28;20479;-62
2023/01/03 09:24:18;;;;;;;49.72;23.88;;;;;;;21.97;42.53;101716.50;21074476;28;20172;-62
2023/01/03 09:34:22;;;;;;;46.63;24.92;;;;;;;21.95;42.51;101713.16;21077893;28;20085;-62
2023/01/03 09:44:24;;;;;;;49.47;23.83;;;;;;;21.94;42.37;101697.50;21073170;28;20051;-62
2023/01/03 10:05:29;;;;;;;43.67;23.42;;;;;;;21.87;42.48;101671.84;21077332;28;20475;-63
2023/01/03 10:15:55;;;;;;;42.17;22.63;;;;;;;21.84;42.42;101689.94;21075354;28;20105;-62
2023/01/03 10:25:57;;;;;;;41.22;21.50;;;;;;;21.90;42.21;101683.31;21074354;28;20093;-62
2023/01/03 10:36:01;;;;;;;41.13;21.30;;;;;;;21.89;42.19;101672.41;21073187;28;20180;-62
2023/01/03 10:46:13;;;;;;;38.75;20.92;;;;;;;21.89;42.04;101616.69;21066538;28;20094;-62
2023/01/03 10:56:15;;;;;;;39.13;20.33;;;;;;;21.78;42.17;101601.88;21067453;28;20089;-62
2023/01/03 11:06:17;;;;;;;34.80;19.00;;;;;;;21.88;42.21;101589.94;21073036;28;20048;-63
2023/01/03 11:16:18;;;;;;;35.42;18.50;;;;;;;21.88;41.96;101568.47;21076080;28;20048;-62
2023/01/03 11:26:42;;;;;;;37.65;19.40;;;;;;;21.86;41.74;101606.09;21085642;28;20040;-62
2023/01/03 11:36:52;;;;;;;30.88;17.75;;;;;;;21.86;42.11;101625.59;21084671;28;20047;-62
2023/01/03 11:47:18;;;;;;;32.80;18.02;;;;;;;21.80;41.83;101572.59;21084811;28;20044;-62
2023/01/03 11:57:38;;;;;;;34.55;18.00;;;;;;;21.83;41.99;101591.59;21082706;28;20117;-62
2023/01/03 12:07:52;;;;;;;31.45;16.48;;;;;;;21.79;41.88;101592.41;21082258;28;20047;-62
2023/01/03 12:18:11;;;;;;;28.02;15.57;;;;;;;21.79;42.09;101578.47;21082994;28;20038;-62
2023/01/03 12:28:25;;;;;;;28.60;15.75;;;;;;;21.69;41.82;101554.19;21081495;28;20043;-62
2023/01/03 12:38:40;;;;;;;27.02;15.57;;;;;;;21.74;41.82;101568.13;21078835;28;20062;-62
2023/01/03 12:48:49;;;;;;;28.85;14.07;;;;;;;21.78;41.96;101558.13;21078558;28;20110;-62
2023/01/03 12:58:59;;;;;;;26.83;13.80;;;;;;;21.66;41.93;101510.16;21074967;28;20074;-62
2023/01/03 13:09:23;;;;;;;23.60;13.43;;;;;;;21.75;41.92;101536.38;21077352;28;20071;-62
2023/01/03 13:19:38;;;;;;;22.73;13.23;;;;;;;21.75;42.18;101525.22;21070206;28;20047;-62
2023/01/03 13:29:53;;;;;;;20.92;12.32;;;;;;;21.57;42.16;101478.38;21072238;28;20117;-62
2023/01/03 13:40:12;;;;;;;19.88;11.57;;;;;;;21.71;42.29;101478.69;21071250;28;20040;-62
2023/01/03 13:50:36;;;;;;;18.23;12.05;;;;;;;21.65;42.31;101463.94;21074631;28;20078;-62
2023/01/03 14:00:39;;;;;;;19.27;12.82;;;;;;;21.70;42.47;101438.88;21073352;28;20413;-62
2023/01/03 14:11:07;;;;;;;19.85;10.95;;;;;;;21.67;41.96;101447.78;21059647;28;20075;-62
2023/01/03 14:21:21;;;;;;;18.98;11.85;;;;;;;21.66;42.02;101468.38;21036199;28;20032;-62
2023/01/03 14:31:26;;;;;;;19.30;10.52;;;;;;;21.58;42.13;101449.44;21053698;28;20133;-62
2023/01/03 14:41:33;;;;;;;20.45;10.77;;;;;;;21.64;42.28;101462.25;21069375;28;20044;-62
2023/01/03 14:51:36;;;;;;;15.10;10.05;;;;;;;21.69;41.79;101481.78;21087740;28;20048;-62
2023/01/03 15:01:37;;;;;;;14.77;9.77;;;;;;;21.71;41.86;101551.97;21088899;28;20394;-62
2023/01/03 15:11:56;;;;;;;17.95;10.88;;;;;;;21.69;42.31;101578.41;21087162;28;20044;-62
2023/01/03 15:22:12;;;;;;;17.37;10.80;;;;;;;21.65;42.26;101547.47;21080288;28;20487;-62
2023/01/03 15:32:17;;;;;;;16.80;10.25;;;;;;;21.63;42.82;101599.00;21089317;28;20372;-62
2023/01/03 15:52:49;;;;;;;15.15;9.18;;;;;;;21.65;42.39;101485.38;21088920;28;20422;-62
2023/01/03 16:02:53;;;;;;;15.60;9.63;;;;;;;21.52;42.45;101405.94;21082463;28;20040;-62
2023/01/03 16:12:57;;;;;;;14.50;9.40;;;;;;;21.61;42.87;101429.38;21080564;28;20040;-62
2023/01/03 16:23:02;;;;;;;14.75;8.38;;;;;;;21.63;43.16;101348.34;21084535;28;20116;-62
2023/01/03 16:33:03;;;;;;;52.58;12.38;;;;;;;21.63;43.01;101348.34;21079272;28;20074;-62
2023/01/03 16:43:07;;;;;;;13.20;8.32;;;;;;;21.58;42.98;101357.53;21051011;28;20043;-63
2023/01/03 16:53:17;;;;;;;13.63;7.68;;;;;;;21.50;43.07;101322.69;21080798;28;20043;-63
2023/01/03 17:03:19;;;;;;;13.25;7.75;;;;;;;21.70;42.69;101332.19;21073393;28;20073;-62
2023/01/03 17:13:40;;;;;;;13.50;7.43;;;;;;;21.66;42.86;101309.63;21081471;28;20475;-62
2023/01/03 17:23:43;;;;;;;23.73;7.82;;;;;;;21.76;43.13;101304.06;21077814;28;20097;-62
2023/01/03 17:33:45;;;;;;;24.23;8.05;;;;;;;21.82;43.05;101240.84;21052618;28;20044;-62
2023/01/03 17:43:46;;;;;;;31.48;8.50;;;;;;;21.85;43.18;101262.53;21075632;28;20074;-63
2023/01/03 17:53:54;;;;;;;25.50;7.60;;;;;;;21.77;43.58;101211.03;21074749;28;20085;-63
2023/01/03 18:03:55;;;;;;;27.27;7.60;;;;;;;21.90;43.54;101228.28;21076596;28;20056;-63
2023/01/03 18:13:57;;;;;;;18.08;7.40;;;;;;;21.93;43.55;101219.34;21043409;28;20060;-63
2023/01/03 18:24:37;;;;;;;21.85;7.82;;;;;;;21.96;43.57;101147.19;21072759;28;20065;-63
2023/01/03 18:34:38;;;;;;;18.58;7.57;;;;;;;22.02;43.84;101159.16;21062646;28;20041;-63
2023/01/03 18:44:40;;;;;;;19.48;7.90;;;;;;;22.05;43.59;101136.31;21064831;28;20044;-63
2023/01/03 18:54:41;;;;;;;24.15;8.40;;;;;;;22.09;43.79;101101.19;21080425;28;20067;-62
2023/01/03 19:04:43;;;;;;;21.23;8.13;;;;;;;22.15;43.62;101086.13;21059178;28;20052;-63
2023/01/03 19:14:47;;;;;;;50.28;9.95;;;;;;;22.17;43.25;101055.16;21043105;28;20101;-62
2023/01/03 19:24:49;;;;;;;38.13;9.43;;;;;;;22.17;43.47;101052.38;21052038;28;20090;-63
2023/01/03 19:34:51;;;;;;;49.42;10.07;;;;;;;22.23;43.25;101057.66;21046931;28;20048;-62
2023/01/03 19:44:53;;;;;;;42.63;9.10;;;;;;;22.27;43.59;100989.06;21086852;28;21061;-62
2023/01/03 19:54:54;;;;;;;32.42;9.23;;;;;;;22.30;43.19;101024.69;21086607;28;20449;-62
2023/01/03 20:04:56;;;;;;;22.23;7.82;;;;;;;22.33;43.24;100981.50;21080290;28;20102;-63
2023/01/03 20:15:00;;;;;;;29.95;8.60;;;;;;;22.13;43.18;100928.66;21083135;28;20078;-63
2023/01/03 20:25:01;;;;;;;31.67;8.30;;;;;;;22.38;43.42;100952.75;21071474;28;20067;-63
2023/01/03 20:35:03;;;;;;;36.45;8.95;;;;;;;22.21;43.97;100948.38;21073832;28;20105;-61
2023/01/03 20:45:05;;;;;;;20.23;7.85;;;;;;;22.44;43.78;100968.28;21059510;28;20044;-62
2023/01/03 20:55:06;;;;;;;23.73;7.95;;;;;;;22.46;43.43;100950.16;21073107;28;20062;-62
2023/01/03 21:05:08;;;;;;;108.55;13.88;;;;;;;22.47;43.80;100953.78;21073489;28;20066;-62
2023/01/03 21:15:09;;;;;;;25.67;8.15;;;;;;;22.53;44.07;100935.88;21076521;28;20105;-62
2023/01/03 21:25:20;;;;;;;27.60;8.43;;;;;;;22.58;43.75;100908.78;21045697;28;20052;-62
2023/01/03 21:35:23;;;;;;;19.65;8.63;;;;;;;22.61;44.13;100907.38;21036798;28;20036;-61
2023/01/03 21:45:28;;;;;;;18.52;7.47;;;;;;;22.43;43.37;100843.97;21064458;28;20895;-61
2023/01/03 21:55:29;;;;;;;16.38;7.35;;;;;;;22.66;43.56;100876.63;21072648;28;20031;-62
2023/01/03 22:05:31;;;;;;;38.33;9.85;;;;;;;22.71;43.17;100875.75;21054439;28;20399;-61
2023/01/03 22:15:52;;;;;;;38.75;9.75;;;;;;;22.60;43.72;100888.97;21050191;28;20047;-62
2023/01/03 22:25:54;;;;;;;38.08;11.07;;;;;;;22.62;43.78;100874.72;21047995;28;20399;-61
2023/01/03 22:35:57;;;;;;;44.70;11.02;;;;;;;22.61;43.67;100865.53;21067365;28;20128;-61
2023/01/03 22:46:04;;;;;;;63.55;10.98;;;;;;;22.61;43.78;100856.34;21071226;28;20040;-61
2023/01/03 22:56:08;;;;;;;60.88;11.00;;;;;;;22.56;43.85;100860.84;21073527;28;20040;-63
2023/01/03 23:06:12;;;;;;;63.55;12.13;;;;;;;22.60;43.96;100849.94;21069406;28;20048;-61
2023/01/03 23:16:13;;;;;;;50.65;11.70;;;;;;;22.58;43.65;100860.53;21088371;28;20082;-62
2023/01/03 23:26:15;;;;;;;72.40;13.48;;;;;;;22.57;44.45;100884.81;21084871;28;20032;-62
2023/01/03 23:36:17;;;;;;;77.60;15.85;;;;;;;22.55;46.34;100849.97;21064749;28;20051;-62
2023/01/03 23:46:20;;;;;;;79.13;13.48;;;;;;;22.65;47.21;100874.16;21060319;28;20328;-62
2023/01/03 23:56:23;;;;;;;85.85;15.95;;;;;;;22.66;47.51;100904.53;21097007;28;20047;-62
